Time;durP1;ratioP1;P1;durP2;ratioP2;P2;SDS_P1;SDS_P2;PMS_P1;PMS_P2;Temp;Humidity;BMP_temperature;BMP_pressure;BME280_temperature;BME280_humidity;BME280_pressure;Samples;Min_cycle;Max_cycle;Signal;HPM_P1;HPM_P2
2023/04/03 00:02:21;;;;;;;4.22;2.75;;;;;;;;;;5024413;28;20021;-53
2023/04/03 00:04:46;;;;;;;11.07;7.75;;;;;;;;;;5024273;28;20081;-53
2023/04/03 00:07:12;;;;;;;5.53;2.88;;;;;;;;;;5023890;28;20477;-54
2023/04/03 00:09:37;;;;;;;8.82;3.97;;;;;;;;;;5037941;28;20115;-56
2023/04/03 00:12:03;;;;;;;7.18;3.60;;;;;;;;;;5024093;28;20109;-53
2023/04/03 00:14:28;;;;;;;5.38;3.13;;;;;;;;;;5024140;28;20041;-56
2023/04/03 00:16:53;;;;;;;9.38;6.60;;;;;;;;;;5023829;28;20022;-51
2023/04/03 00:19:19;;;;;;;7.40;3.63;;;;;;;;;;5023869;28;20030;-54
2023/04/03 00:21:44;;;;;;;7.30;3.72;;;;;;;;;;5054358;28;20030;-56
2023/04/03 00:24:10;;;;;;;5.85;3.20;;;;;;;;;;5024220;28;20099;-54
2023/04/03 00:26:35;;;;;;;8.68;4.78;;;;;;;;;;5023733;28;20495;-54
2023/04/03 00:29:00;;;;;;;5.10;3.00;;;;;;;;;;5024077;28;20468;-53
2023/04/03 00:31:26;;;;;;;19.52;17.67;;;;;;;;;;5023926;28;20021;-54
2023/04/03 00:33:51;;;;;;;5.97;4.68;;;;;;;;;;5023688;28;20714;-54
2023/04/03 00:36:16;;;;;;;10.30;8.68;;;;;;;;;;5023877;28;20037;-54
2023/04/03 00:38:42;;;;;;;6.22;4.00;;;;;;;;;;5024170;28;20363;-53
2023/04/03 00:41:07;;;;;;;9.00;6.53;;;;;;;;;;5024473;28;20022;-56
2023/04/03 00:43:32;;;;;;;6.53;3.08;;;;;;;;;;5024171;28;20025;-54
2023/04/03 00:45:59;;;;;;;6.20;3.90;;;;;;;;;;5023934;28;20121;-56
2023/04/03 00:48:27;;;;;;;11.85;8.52;;;;;;;;;;5024307;28;20051;-56
2023/04/03 00:50:52;;;;;;;5.88;2.47;;;;;;;;;;5023785;28;20048;-56
2023/04/03 00:53:21;;;;;;;5.68;3.50;;;;;;;;;;5023483;28;20465;-53
2023/04/03 00:55:48;;;;;;;6.40;3.50;;;;;;;;;;5023484;28;20037;-56
2023/04/03 00:58:13;;;;;;;7.00;3.08;;;;;;;;;;5023859;28;20389;-52
2023/04/03 01:00:40;;;;;;;6.15;3.35;;;;;;;;;;5023524;28;20091;-55
2023/04/03 01:03:05;;;;;;;7.68;5.03;;;;;;;;;;5023801;28;20025;-53
2023/04/03 01:05:31;;;;;;;8.00;3.22;;;;;;;;;;5023587;28;20152;-55
2023/04/03 01:07:56;;;;;;;7.22;5.05;;;;;;;;;;5031667;28;20106;-55
2023/04/03 01:10:22;;;;;;;12.48;10.80;;;;;;;;;;5044050;28;20025;-52
2023/04/03 01:12:49;;;;;;;5.72;3.45;;;;;;;;;;5047438;28;20472;-54
2023/04/03 01:15:19;;;;;;;20.40;18.48;;;;;;;;;;5047176;28;20412;-55
2023/04/03 01:17:45;;;;;;;9.55;5.38;;;;;;;;;;5047057;28;20395;-55
2023/04/03 01:20:24;;;;;;;7.38;4.82;;;;;;;;;;5047147;28;20028;-54
2023/04/03 01:22:58;;;;;;;6.68;3.85;;;;;;;;;;5046950;28;20028;-56
2023/04/03 01:25:24;;;;;;;9.02;5.57;;;;;;;;;;5046992;28;20040;-54
2023/04/03 01:27:49;;;;;;;10.65;5.07;;;;;;;;;;5046596;28;20029;-54
2023/04/03 01:30:17;;;;;;;4.85;2.60;;;;;;;;;;5046613;28;20112;-53
2023/04/03 01:32:42;;;;;;;9.70;3.65;;;;;;;;;;5046262;28;20469;-52
2023/04/03 01:35:08;;;;;;;7.15;3.38;;;;;;;;;;5044103;28;20051;-52
2023/04/03 01:37:33;;;;;;;8.27;3.67;;;;;;;;;;5046826;28;20028;-53
2023/04/03 01:39:58;;;;;;;4.32;2.75;;;;;;;;;;5027221;28;20400;-51
2023/04/03 01:42:24;;;;;;;7.55;4.35;;;;;;;;;;5046739;28;20390;-54
2023/04/03 01:44:49;;;;;;;7.88;4.28;;;;;;;;;;5046429;28;20025;-54
2023/04/03 01:47:14;;;;;;;6.82;4.95;;;;;;;;;;5046397;28;20033;-54
2023/04/03 01:49:40;;;;;;;5.95;3.25;;;;;;;;;;5046440;28;20017;-50
2023/04/03 01:52:05;;;;;;;9.90;6.93;;;;;;;;;;5046722;28;20055;-56
2023/04/03 01:54:30;;;;;;;8.00;4.22;;;;;;;;;;5027111;28;20515;-53
2023/04/03 01:56:56;;;;;;;7.32;3.60;;;;;;;;;;5046613;28;20037;-54
2023/04/03 01:59:21;;;;;;;16.27;6.68;;;;;;;;;;5046356;28;20032;-53
2023/04/03 02:01:46;;;;;;;14.32;12.93;;;;;;;;;;5046558;28;20595;-50
2023/04/03 02:04:12;;;;;;;16.98;15.18;;;;;;;;;;5045988;28;20082;-54
2023/04/03 02:06:37;;;;;;;28.65;26.38;;;;;;;;;;5046008;28;20040;-52
2023/04/03 02:09:03;;;;;;;9.10;7.40;;;;;;;;;;5026060;28;20044;-51
2023/04/03 02:11:28;;;;;;;8.80;6.25;;;;;;;;;;5025986;28;20029;-52
2023/04/03 02:13:53;;;;;;;8.38;3.60;;;;;;;;;;5026398;28;20018;-50
2023/04/03 02:16:18;;;;;;;4.85;2.95;;;;;;;;;;5024766;28;20048;-52
2023/04/03 02:18:44;;;;;;;5.45;2.90;;;;;;;;;;5026027;28;20029;-56
2023/04/03 02:21:09;;;;;;;8.25;3.47;;;;;;;;;;5039125;28;20095;-53
2023/04/03 02:23:36;;;;;;;5.07;3.03;;;;;;;;;;5025597;28;20033;-53
2023/04/03 02:26:12;;;;;;;4.78;2.83;;;;;;;;;;5025351;28;20561;-54
2023/04/03 02:28:37;;;;;;;4.85;2.97;;;;;;;;;;5025787;28;20021;-53
2023/04/03 02:31:03;;;;;;;5.15;2.92;;;;;;;;;;5025691;28;20037;-53
2023/04/03 02:33:29;;;;;;;8.20;2.95;;;;;;;;;;5025318;28;20057;-55
2023/04/03 02:35:55;;;;;;;4.82;2.53;;;;;;;;;;5026028;28;20310;-50
2023/04/03 02:38:20;;;;;;;6.20;2.88;;;;;;;;;;5025790;28;20026;-52
2023/04/03 02:40:46;;;;;;;4.28;2.35;;;;;;;;;;5026029;28;20388;-50
2023/04/03 02:43:11;;;;;;;6.80;2.38;;;;;;;;;;5025790;28;20037;-50
2023/04/03 02:45:36;;;;;;;5.28;2.45;;;;;;;;;;5024439;28;20385;-50
2023/04/03 02:48:02;;;;;;;3.00;2.10;;;;;;;;;;5025642;28;20014;-51
2023/04/03 02:50:27;;;;;;;3.58;2.40;;;;;;;;;;5025117;28;20102;-53
2023/04/03 02:52:52;;;;;;;5.90;3.63;;;;;;;;;;5025336;28;20014;-54
2023/04/03 02:55:17;;;;;;;7.40;3.42;;;;;;;;;;5025318;28;20017;-54
2023/04/03 02:57:43;;;;;;;2.97;2.38;;;;;;;;;;5025103;28;20057;-50
2023/04/03 03:00:09;;;;;;;3.35;2.17;;;;;;;;;;5025410;28;20527;-52
2023/04/03 03:02:35;;;;;;;4.10;1.92;;;;;;;;;;5025392;28;20032;-54
2023/04/03 03:05:00;;;;;;;4.93;2.47;;;;;;;;;;5025564;28;20021;-52
2023/04/03 03:07:25;;;;;;;3.72;2.10;;;;;;;;;;5024896;28;20153;-53
2023/04/03 03:09:51;;;;;;;4.18;2.13;;;;;;;;;;5024957;28;20381;-54
2023/04/03 03:12:21;;;;;;;2.35;1.98;;;;;;;;;;5025027;28;20029;-53
2023/04/03 03:14:46;;;;;;;3.83;2.22;;;;;;;;;;5024848;28;20064;-50
2023/04/03 03:17:11;;;;;;;2.83;2.05;;;;;;;;;;5024961;28;20026;-54
2023/04/03 03:19:37;;;;;;;4.25;2.20;;;;;;;;;;5024812;28;20566;-53
2023/04/03 03:22:02;;;;;;;3.78;2.22;;;;;;;;;;5024707;28;20025;-54
2023/04/03 03:24:27;;;;;;;3.03;2.10;;;;;;;;;;5025157;28;20466;-53
2023/04/03 03:26:52;;;;;;;3.97;2.70;;;;;;;;;;5024736;28;20128;-56
2023/04/03 03:29:18;;;;;;;5.65;2.78;;;;;;;;;;5025102;28;20026;-53
2023/04/03 03:31:43;;;;;;;5.97;2.92;;;;;;;;;;5024991;28;20381;-53
2023/04/03 03:34:08;;;;;;;7.80;2.83;;;;;;;;;;5023714;28;20180;-54
2023/04/03 03:36:34;;;;;;;4.20;2.85;;;;;;;;;;5024868;28;20044;-52
2023/04/03 03:38:59;;;;;;;8.55;3.50;;;;;;;;;;5024363;28;20112;-52
2023/04/03 03:41:25;;;;;;;5.25;3.25;;;;;;;;;;5024373;28;20029;-52
2023/04/03 03:43:50;;;;;;;6.93;3.47;;;;;;;;;;5024660;28;20029;-50
2023/04/03 03:46:15;;;;;;;8.27;3.47;;;;;;;;;;5024141;28;20438;-52
2023/04/03 03:48:41;;;;;;;5.55;3.00;;;;;;;;;;5024374;28;20584;-53
2023/04/03 03:51:07;;;;;;;3.20;2.35;;;;;;;;;;5024382;28;20451;-52
2023/04/03 03:53:32;;;;;;;7.85;3.50;;;;;;;;;;5024035;28;20135;-56
2023/04/03 03:55:57;;;;;;;13.80;6.53;;;;;;;;;;5024602;28;20469;-53
2023/04/03 03:58:22;;;;;;;16.48;7.03;;;;;;;;;;5024428;28;20063;-53
2023/04/03 04:00:48;;;;;;;19.15;8.80;;;;;;;;;;5024350;28;20057;-54
2023/04/03 04:03:13;;;;;;;17.15;8.80;;;;;;;;;;5024437;28;20041;-51
2023/04/03 04:05:39;;;;;;;20.38;9.23;;;;;;;;;;5023996;28;20076;-50
2023/04/03 04:08:04;;;;;;;18.73;9.35;;;;;;;;;;5023857;28;20018;-51
2023/04/03 04:10:29;;;;;;;14.35;8.45;;;;;;;;;;5005217;28;20037;-52
2023/04/03 04:12:55;;;;;;;15.00;8.63;;;;;;;;;;5023851;28;20025;-50
2023/04/03 04:15:21;;;;;;;17.33;9.32;;;;;;;;;;5024168;28;20531;-54
2023/04/03 04:17:46;;;;;;;17.25;8.77;;;;;;;;;;5024416;28;20104;-51
2023/04/03 04:20:12;;;;;;;17.58;9.20;;;;;;;;;;5023809;28;20105;-49
2023/04/03 04:22:38;;;;;;;15.70;8.48;;;;;;;;;;5023979;28;20048;-54
2023/04/03 04:25:04;;;;;;;16.85;8.75;;;;;;;;;;5024111;28;20052;-54
2023/04/03 04:27:29;;;;;;;13.93;8.48;;;;;;;;;;5023528;28;20478;-51
2023/04/03 04:29:54;;;;;;;18.17;9.18;;;;;;;;;;5024100;28;20033;-54
2023/04/03 04:32:20;;;;;;;16.10;8.57;;;;;;;;;;5024285;28;20105;-50
2023/04/03 04:34:45;;;;;;;16.33;9.35;;;;;;;;;;5024045;28;20493;-50
2023/04/03 04:37:10;;;;;;;16.58;7.95;;;;;;;;;;5024281;28;20025;-51
2023/04/03 04:39:35;;;;;;;15.75;9.13;;;;;;;;;;5024094;28;20129;-54
2023/04/03 04:42:01;;;;;;;17.70;9.90;;;;;;;;;;5023848;28;20033;-52
2023/04/03 04:44:26;;;;;;;14.05;8.25;;;;;;;;;;5024404;28;20026;-51
2023/04/03 04:46:51;;;;;;;16.92;9.45;;;;;;;;;;5027277;28;20447;-51
2023/04/03 04:49:17;;;;;;;22.15;10.30;;;;;;;;;;5027636;28;20074;-50
2023/04/03 04:51:42;;;;;;;26.95;10.38;;;;;;;;;;5027502;28;20025;-54
2023/04/03 04:54:07;;;;;;;21.60;9.88;;;;;;;;;;5027677;28;20037;-52
2023/04/03 04:56:32;;;;;;;17.33;8.88;;;;;;;;;;5027656;28;20679;-51
2023/04/03 04:58:58;;;;;;;25.70;10.35;;;;;;;;;;5025744;28;20115;-52
2023/04/03 05:01:23;;;;;;;19.02;9.57;;;;;;;;;;5026889;28;20108;-53
2023/04/03 05:03:48;;;;;;;19.95;10.13;;;;;;;;;;5027693;28;20440;-53
2023/04/03 05:06:14;;;;;;;22.80;10.13;;;;;;;;;;5027254;28;20042;-50
2023/04/03 05:08:39;;;;;;;17.50;9.32;;;;;;;;;;5026823;28;20032;-55
2023/04/03 05:11:04;;;;;;;19.52;9.20;;;;;;;;;;5024622;28;20033;-51
2023/04/03 05:13:30;;;;;;;21.10;10.65;;;;;;;;;;5027284;28;20017;-54
2023/04/03 05:15:55;;;;;;;18.83;10.05;;;;;;;;;;5027493;28;21049;-52
2023/04/03 05:18:20;;;;;;;25.05;10.40;;;;;;;;;;5026869;28;20017;-51
2023/04/03 05:20:48;;;;;;;18.92;8.93;;;;;;;;;;5026657;28;20116;-52
2023/04/03 05:23:13;;;;;;;18.38;8.50;;;;;;;;;;5025766;28;20032;-50
2023/04/03 05:25:38;;;;;;;17.17;8.73;;;;;;;;;;5007797;28;20045;-53
2023/04/03 05:28:04;;;;;;;18.00;8.52;;;;;;;;;;5026605;28;20330;-52
2023/04/03 05:30:29;;;;;;;21.65;8.68;;;;;;;;;;5026885;28;20029;-52
2023/04/03 05:32:55;;;;;;;13.13;7.72;;;;;;;;;;5026749;28;20056;-53
2023/04/03 05:35:20;;;;;;;18.67;8.52;;;;;;;;;;5026643;28;20077;-52
2023/04/03 05:37:45;;;;;;;17.83;8.77;;;;;;;;;;5025660;28;20065;-55
2023/04/03 05:40:11;;;;;;;20.52;11.00;;;;;;;;;;5026777;28;20075;-54
2023/04/03 05:42:36;;;;;;;21.58;10.88;;;;;;;;;;5026320;28;20384;-52
2023/04/03 05:45:02;;;;;;;23.15;11.07;;;;;;;;;;5026750;28;20029;-55
2023/04/03 05:47:27;;;;;;;20.70;9.10;;;;;;;;;;5026733;28;20029;-53
2023/04/03 05:49:53;;;;;;;19.27;9.68;;;;;;;;;;5023509;28;20022;-49
2023/04/03 05:52:22;;;;;;;21.60;13.73;;;;;;;;;;5009286;28;20032;-53
2023/04/03 05:54:48;;;;;;;23.58;14.68;;;;;;;;;;5025124;28;20032;-50
2023/04/03 05:57:14;;;;;;;48.67;43.60;;;;;;;;;;5014440;28;20373;-54
2023/04/03 05:59:39;;;;;;;23.60;12.98;;;;;;;;;;5027496;28;20022;-54
2023/04/03 06:02:05;;;;;;;28.67;12.32;;;;;;;;;;5023841;28;20469;-54
2023/04/03 06:04:30;;;;;;;25.33;11.75;;;;;;;;;;5029304;28;20025;-50
2023/04/03 06:06:57;;;;;;;28.92;11.27;;;;;;;;;;5024699;28;20044;-55
2023/04/03 06:09:23;;;;;;;23.15;9.85;;;;;;;;;;5019566;28;20581;-54
2023/04/03 06:11:49;;;;;;;23.52;9.02;;;;;;;;;;5017710;28;20067;-50
2023/04/03 06:14:14;;;;;;;17.15;8.35;;;;;;;;;;5025502;28;20069;-51
2023/04/03 06:16:40;;;;;;;21.35;8.48;;;;;;;;;;5029703;28;20045;-48
2023/04/03 06:19:06;;;;;;;16.02;8.70;;;;;;;;;;5019683;28;20060;-52
2023/04/03 06:21:32;;;;;;;21.88;9.40;;;;;;;;;;5022049;28;20032;-53
2023/04/03 06:23:57;;;;;;;15.10;8.35;;;;;;;;;;5016211;28;20389;-48
2023/04/03 06:26:23;;;;;;;18.10;9.13;;;;;;;;;;5018527;28;20508;-49
2023/04/03 06:28:48;;;;;;;15.80;8.05;;;;;;;;;;5030657;28;20038;-58
2023/04/03 06:31:13;;;;;;;16.77;8.30;;;;;;;;;;5014408;28;20493;-59
2023/04/03 06:33:39;;;;;;;21.92;9.25;;;;;;;;;;5011723;28;20062;-57
2023/04/03 06:36:05;;;;;;;27.55;10.93;;;;;;;;;;5013341;28;20037;-58
2023/04/03 06:38:30;;;;;;;18.45;9.30;;;;;;;;;;5012204;28;20030;-56
2023/04/03 06:40:56;;;;;;;22.88;8.88;;;;;;;;;;5022486;28;20563;-58
2023/04/03 06:43:22;;;;;;;18.35;8.95;;;;;;;;;;5023884;28;20400;-56
2023/04/03 06:45:47;;;;;;;23.35;9.75;;;;;;;;;;5029517;28;20133;-59
2023/04/03 06:48:12;;;;;;;23.05;9.70;;;;;;;;;;5020402;28;20025;-59
2023/04/03 06:50:38;;;;;;;19.75;9.13;;;;;;;;;;5024878;28;20029;-56
2023/04/03 06:53:03;;;;;;;18.17;9.18;;;;;;;;;;5020763;28;20041;-53
2023/04/03 06:55:29;;;;;;;27.52;9.95;;;;;;;;;;5018985;28;20037;-51
2023/04/03 06:57:55;;;;;;;23.10;9.50;;;;;;;;;;5016993;28;20052;-56
2023/04/03 07:00:20;;;;;;;15.02;5.15;;;;;;;;;;5023709;28;20048;-56
2023/04/03 07:02:46;;;;;;;27.85;7.57;;;;;;;;;;5017580;28;20021;-58
2023/04/03 07:05:11;;;;;;;15.82;7.32;;;;;;;;;;5007786;28;20033;-56
2023/04/03 07:07:37;;;;;;;21.40;7.03;;;;;;;;;;5013829;28;20038;-55
2023/04/03 07:10:03;;;;;;;12.75;5.70;;;;;;;;;;5016020;28;20017;-55
2023/04/03 07:12:28;;;;;;;15.23;6.20;;;;;;;;;;5035650;28;20033;-58
2023/04/03 07:14:54;;;;;;;26.77;8.18;;;;;;;;;;5018818;28;20116;-56
2023/04/03 07:17:19;;;;;;;18.30;7.20;;;;;;;;;;5009469;28;20385;-52
2023/04/03 07:19:44;;;;;;;14.18;7.07;;;;;;;;;;5014550;28;20057;-57
2023/04/03 07:22:11;;;;;;;14.32;6.78;;;;;;;;;;5025216;28;20779;-62
2023/04/03 07:24:36;;;;;;;15.35;6.55;;;;;;;;;;5021291;28;20485;-62
2023/04/03 07:27:02;;;;;;;13.38;6.43;;;;;;;;;;5026486;28;20064;-61
2023/04/03 07:29:28;;;;;;;21.70;8.48;;;;;;;;;;5016958;28;20091;-66
2023/04/03 07:31:55;;;;;;;19.58;7.18;;;;;;;;;;5020205;28;20052;-63
2023/04/03 07:34:20;;;;;;;15.65;7.45;;;;;;;;;;5022045;28;20060;-60
2023/04/03 07:36:45;;;;;;;19.08;7.53;;;;;;;;;;5021258;28;20032;-58
2023/04/03 07:39:12;;;;;;;21.15;7.82;;;;;;;;;;5021379;28;20358;-61
2023/04/03 07:41:37;;;;;;;33.92;9.68;;;;;;;;;;5024375;28;20624;-54
2023/04/03 07:44:04;;;;;;;13.80;7.32;;;;;;;;;;5015613;28;20018;-55
2023/04/03 07:46:29;;;;;;;16.60;6.63;;;;;;;;;;5011480;28;20118;-60
2023/04/03 07:48:55;;;;;;;24.35;7.80;;;;;;;;;;5019541;28;20481;-59
2023/04/03 07:51:20;;;;;;;19.95;7.80;;;;;;;;;;5017622;28;20018;-60
2023/04/03 07:53:45;;;;;;;19.40;7.78;;;;;;;;;;5023641;28;20033;-60
2023/04/03 07:56:11;;;;;;;14.75;6.07;;;;;;;;;;5020192;28;20033;-60
2023/04/03 07:58:37;;;;;;;13.70;6.55;;;;;;;;;;5016546;28;20145;-57
2023/04/03 08:01:02;;;;;;;19.20;6.97;;;;;;;;;;5027386;28;20132;-57
2023/04/03 08:03:27;;;;;;;21.92;7.32;;;;;;;;;;5006969;28;20029;-56
2023/04/03 08:05:53;;;;;;;20.27;7.40;;;;;;;;;;5030754;28;20036;-57
2023/04/03 08:08:21;;;;;;;16.63;7.43;;;;;;;;;;5010390;28;20052;-56
2023/04/03 08:10:50;;;;;;;14.02;6.35;;;;;;;;;;5019746;28;20028;-56
2023/04/03 08:13:15;;;;;;;21.73;6.78;;;;;;;;;;5012981;28;20100;-55
2023/04/03 08:15:41;;;;;;;9.80;5.30;;;;;;;;;;5014252;28;20356;-58
2023/04/03 08:18:06;;;;;;;10.88;4.60;;;;;;;;;;5020409;28;20100;-54
2023/04/03 08:20:31;;;;;;;7.65;4.60;;;;;;;;;;5020836;28;20176;-56
2023/04/03 08:22:57;;;;;;;12.13;5.00;;;;;;;;;;5025434;28;20025;-56
2023/04/03 08:25:22;;;;;;;16.38;5.35;;;;;;;;;;5029567;28;20453;-58
2023/04/03 08:27:47;;;;;;;7.60;3.92;;;;;;;;;;5020674;28;20020;-57
2023/04/03 08:30:13;;;;;;;12.88;4.70;;;;;;;;;;5022927;28;20029;-58
2023/04/03 08:32:39;;;;;;;9.70;4.28;;;;;;;;;;5016229;28;20465;-57
2023/04/03 08:35:05;;;;;;;10.38;4.25;;;;;;;;;;5009508;28;20293;-58
2023/04/03 08:37:30;;;;;;;8.73;4.43;;;;;;;;;;5014397;28;20666;-57
2023/04/03 08:39:55;;;;;;;6.45;3.58;;;;;;;;;;5022049;28;20099;-54
2023/04/03 08:42:21;;;;;;;7.80;3.72;;;;;;;;;;5028577;28;20226;-58
2023/04/03 08:44:49;;;;;;;11.67;4.20;;;;;;;;;;5014997;28;20024;-54
2023/04/03 08:47:26;;;;;;;9.80;3.97;;;;;;;;;;5019428;28;20369;-58
2023/04/03 08:49:54;;;;;;;6.25;3.25;;;;;;;;;;5025715;28;20038;-56
2023/04/03 08:52:23;;;;;;;6.80;3.65;;;;;;;;;;5016968;28;20033;-56
2023/04/03 08:54:57;;;;;;;5.88;3.75;;;;;;;;;;5011010;28;20052;-56
2023/04/03 08:57:44;;;;;;;8.68;3.58;;;;;;;;;;5025143;28;20048;-58
2023/04/03 09:00:15;;;;;;;5.80;3.13;;;;;;;;;;5025166;28;20025;-52
2023/04/03 09:03:07;;;;;;;11.82;4.20;;;;;;;;;;5022345;28;20037;-55
2023/04/03 09:05:39;;;;;;;12.23;4.20;;;;;;;;;;5043531;28;20090;-57
2023/04/03 09:08:09;;;;;;;10.00;4.13;;;;;;;;;;5037889;28;20104;-50
2023/04/03 09:10:37;;;;;;;8.20;3.60;;;;;;;;;;5042851;28;20033;-58
2023/04/03 09:13:20;;;;;;;9.60;4.10;;;;;;;;;;5042690;28;20032;-58
2023/04/03 09:15:46;;;;;;;7.18;3.50;;;;;;;;;;5037696;28;20037;-57
2023/04/03 09:18:22;;;;;;;8.73;4.20;;;;;;;;;;5035930;28;20457;-56
2023/04/03 09:20:53;;;;;;;7.35;3.78;;;;;;;;;;5043098;28;20057;-54
2023/04/03 09:23:21;;;;;;;11.98;4.28;;;;;;;;;;5038941;28;20075;-56
2023/04/03 09:25:47;;;;;;;8.23;4.07;;;;;;;;;;5043162;28;20098;-54
2023/04/03 09:28:13;;;;;;;5.80;3.97;;;;;;;;;;5038893;28;20075;-55
2023/04/03 09:30:38;;;;;;;9.13;3.97;;;;;;;;;;5034312;28;20439;-55
2023/04/03 09:33:05;;;;;;;10.88;4.03;;;;;;;;;;5027664;28;20026;-51
2023/04/03 09:35:31;;;;;;;7.80;4.22;;;;;;;;;;5024572;28;20116;-58
2023/04/03 09:38:00;;;;;;;6.25;3.45;;;;;;;;;;5025215;28;20033;-58
2023/04/03 09:40:25;;;;;;;7.72;3.70;;;;;;;;;;5039740;28;20477;-59
2023/04/03 09:42:52;;;;;;;6.57;3.38;;;;;;;;;;5023704;28;20044;-59
2023/04/03 09:45:33;;;;;;;8.93;3.70;;;;;;;;;;5023778;28;20014;-58
2023/04/03 09:48:04;;;;;;;8.57;3.60;;;;;;;;;;5029494;28;20040;-58
2023/04/03 09:50:30;;;;;;;6.43;3.05;;;;;;;;;;5032439;28;20029;-56
2023/04/03 09:52:55;;;;;;;6.57;3.47;;;;;;;;;;5030403;28;20029;-58
2023/04/03 09:55:26;;;;;;;6.93;3.53;;;;;;;;;;5024440;28;20022;-59
2023/04/03 09:57:52;;;;;;;9.48;3.13;;;;;;;;;;5022323;28;20022;-58
2023/04/03 10:00:37;;;;;;;7.70;3.50;;;;;;;;;;5014384;28;20512;-58
2023/04/03 10:03:03;;;;;;;5.05;2.53;;;;;;;;;;5018234;28;20036;-59
2023/04/03 10:05:36;;;;;;;5.43;2.75;;;;;;;;;;5031483;28;20440;-58
2023/04/03 10:08:07;;;;;;;14.90;3.53;;;;;;;;;;5039180;28;20094;-58
2023/04/03 10:10:32;;;;;;;9.80;3.85;;;;;;;;;;5022528;28;20044;-57
2023/04/03 10:13:10;;;;;;;12.73;3.55;;;;;;;;;;5030725;28;20108;-58
2023/04/03 10:15:48;;;;;;;7.18;2.97;;;;;;;;;;5030072;28;20026;-59
2023/04/03 10:18:29;;;;;;;10.93;3.75;;;;;;;;;;5020291;28;20091;-59
2023/04/03 10:20:57;;;;;;;8.98;3.20;;;;;;;;;;5013623;28;20117;-57
2023/04/03 10:23:22;;;;;;;9.57;3.25;;;;;;;;;;5017014;28;20036;-59
2023/04/03 10:26:06;;;;;;;6.95;2.55;;;;;;;;;;5020269;28;20029;-58
2023/04/03 10:28:40;;;;;;;7.60;3.33;;;;;;;;;;5021478;28;20031;-58
2023/04/03 10:31:11;;;;;;;9.18;3.80;;;;;;;;;;5023845;28;20022;-60
2023/04/03 10:33:48;;;;;;;10.18;2.88;;;;;;;;;;5031201;28;20045;-60
2023/04/03 10:36:32;;;;;;;8.75;3.00;;;;;;;;;;5020603;28;20022;-59
2023/04/03 10:39:09;;;;;;;4.82;2.47;;;;;;;;;;5018620;28;20033;-58
2023/04/03 10:41:47;;;;;;;7.60;2.90;;;;;;;;;;5016119;28;20092;-60
2023/04/03 10:44:16;;;;;;;4.50;2.33;;;;;;;;;;5018317;28;20022;-59
2023/04/03 10:46:45;;;;;;;26.48;10.27;;;;;;;;;;5019936;28;20033;-56
2023/04/03 10:49:27;;;;;;;12.15;7.78;;;;;;;;;;5020372;28;20404;-60
2023/04/03 10:52:12;;;;;;;6.80;2.75;;;;;;;;;;5026316;28;20045;-58
2023/04/03 10:54:37;;;;;;;10.30;2.90;;;;;;;;;;4983816;28;20038;-59
2023/04/03 10:57:04;;;;;;;8.98;2.70;;;;;;;;;;4984202;28;20097;-60
2023/04/03 10:59:35;;;;;;;12.05;2.92;;;;;;;;;;4982036;28;20134;-60
2023/04/03 11:02:21;;;;;;;9.82;2.63;;;;;;;;;;4984169;28;20030;-61
2023/04/03 11:04:48;;;;;;;8.35;2.55;;;;;;;;;;4951883;28;20126;-60
2023/04/03 11:07:19;;;;;;;8.75;2.53;;;;;;;;;;4945439;29;20116;-60
2023/04/03 11:09:46;;;;;;;6.70;2.38;;;;;;;;;;4945562;28;20071;-62
2023/04/03 11:12:25;;;;;;;5.22;2.50;;;;;;;;;;4946174;28;20042;-59
2023/04/03 11:14:51;;;;;;;11.48;3.25;;;;;;;;;;4941731;28;20114;-59
2023/04/03 11:17:16;;;;;;;48.67;44.42;;;;;;;;;;4942333;28;20176;-59
2023/04/03 11:19:46;;;;;;;16.10;14.30;;;;;;;;;;4940067;28;20680;-56
2023/04/03 11:22:11;;;;;;;32.53;29.40;;;;;;;;;;4944878;28;20038;-58
2023/04/03 11:24:39;;;;;;;17.23;15.38;;;;;;;;;;4951296;28;20031;-60
2023/04/03 11:27:06;;;;;;;12.70;9.52;;;;;;;;;;4942527;28;20041;-59
2023/04/03 11:29:36;;;;;;;11.82;4.28;;;;;;;;;;4940900;28;20077;-57
2023/04/03 11:32:01;;;;;;;8.93;3.25;;;;;;;;;;4946788;28;20058;-60
2023/04/03 11:34:58;;;;;;;16.52;8.43;;;;;;;;;;4981234;28;20142;-57
2023/04/03 11:37:24;;;;;;;13.48;4.97;;;;;;;;;;4943140;28;20071;-56
2023/04/03 11:39:54;;;;;;;4.65;2.55;;;;;;;;;;4942979;28;20056;-58
2023/04/03 11:42:20;;;;;;;14.88;7.00;;;;;;;;;;4955837;28;20375;-64
2023/04/03 11:44:45;;;;;;;8.88;5.68;;;;;;;;;;4973885;28;20030;-59
2023/04/03 11:47:12;;;;;;;18.67;5.50;;;;;;;;;;4956900;28;20043;-57
2023/04/03 11:49:59;;;;;;;7.88;3.53;;;;;;;;;;4952962;28;20077;-57
2023/04/03 11:52:40;;;;;;;16.45;4.68;;;;;;;;;;4963700;28;20035;-60
2023/04/03 11:55:23;;;;;;;8.18;4.10;;;;;;;;;;4962720;28;20038;-58
2023/04/03 11:57:57;;;;;;;13.60;6.63;;;;;;;;;;4956889;28;20027;-57
2023/04/03 12:00:41;;;;;;;11.43;3.33;;;;;;;;;;4953465;28;20031;-54
2023/04/03 12:03:27;;;;;;;10.40;4.20;;;;;;;;;;4955223;28;20035;-58
2023/04/03 12:06:00;;;;;;;5.95;3.30;;;;;;;;;;4958982;28;20026;-57
2023/04/03 12:08:29;;;;;;;19.95;5.45;;;;;;;;;;4957570;28;20174;-57
2023/04/03 12:11:23;;;;;;;11.85;3.75;;;;;;;;;;4961317;28;20031;-58
2023/04/03 12:13:48;;;;;;;6.18;3.03;;;;;;;;;;4932870;28;20043;-59
2023/04/03 12:16:26;;;;;;;4.00;2.30;;;;;;;;;;4961474;28;20053;-59
2023/04/03 12:18:52;;;;;;;5.47;2.60;;;;;;;;;;4959728;28;20835;-57
2023/04/03 12:21:21;;;;;;;13.63;4.53;;;;;;;;;;4952488;28;20019;-59
2023/04/03 12:24:05;;;;;;;8.70;3.58;;;;;;;;;;4956826;28;20039;-54
2023/04/03 12:26:50;;;;;;;16.50;4.47;;;;;;;;;;4951635;28;20039;-58
2023/04/03 12:29:24;;;;;;;11.80;4.15;;;;;;;;;;4938899;28;20023;-61
2023/04/03 12:31:55;;;;;;;12.13;3.60;;;;;;;;;;4956893;28;20133;-60
2023/04/03 12:34:39;;;;;;;16.95;4.25;;;;;;;;;;4951803;28;20106;-57
2023/04/03 12:37:14;;;;;;;14.90;3.78;;;;;;;;;;4952920;28;20675;-59
2023/04/03 12:39:42;;;;;;;5.75;3.10;;;;;;;;;;4954214;28;20050;-59
2023/04/03 12:42:19;;;;;;;8.93;3.22;;;;;;;;;;4955537;28;20035;-60
2023/04/03 12:45:03;;;;;;;8.63;3.00;;;;;;;;;;4961845;28;20418;-61
2023/04/03 12:47:32;;;;;;;10.70;3.25;;;;;;;;;;4946538;28;20483;-59
2023/04/03 12:49:59;;;;;;;10.05;3.63;;;;;;;;;;4982896;28;20718;-61
2023/04/03 12:52:40;;;;;;;4.70;2.50;;;;;;;;;;5017303;28;20468;-60
2023/04/03 12:55:16;;;;;;;4.90;2.50;;;;;;;;;;5021674;28;20022;-61
2023/04/03 12:57:41;;;;;;;8.07;2.78;;;;;;;;;;5018661;28;20457;-60
2023/04/03 13:00:20;;;;;;;4.65;2.47;;;;;;;;;;5019946;28;20036;-60
2023/04/03 13:02:46;;;;;;;5.47;2.50;;;;;;;;;;5022073;28;20025;-59
2023/04/03 13:05:16;;;;;;;4.50;2.40;;;;;;;;;;5028186;28;20041;-61
2023/04/03 13:07:43;;;;;;;3.60;2.28;;;;;;;;;;5022053;28;20040;-60
2023/04/03 13:10:08;;;;;;;6.93;3.33;;;;;;;;;;5011999;28;20026;-59
2023/04/03 13:12:35;;;;;;;9.67;2.97;;;;;;;;;;5035305;28;20037;-61
2023/04/03 13:15:04;;;;;;;3.33;1.67;;;;;;;;;;5022739;28;20365;-60
2023/04/03 13:17:29;;;;;;;5.60;1.83;;;;;;;;;;5016202;28;20029;-60
2023/04/03 13:19:55;;;;;;;6.38;2.25;;;;;;;;;;5021756;28;20025;-60
2023/04/03 13:22:28;;;;;;;13.77;3.72;;;;;;;;;;5019667;28;20049;-55
2023/04/03 13:24:54;;;;;;;13.88;3.45;;;;;;;;;;5024259;28;20044;-55
2023/04/03 13:27:19;;;;;;;5.25;2.05;;;;;;;;;;5023911;28;20029;-60
2023/04/03 13:29:49;;;;;;;7.43;1.95;;;;;;;;;;5024867;28;20180;-57
2023/04/03 13:32:17;;;;;;;4.90;1.50;;;;;;;;;;5020344;28;20120;-61
2023/04/03 13:34:43;;;;;;;9.13;2.28;;;;;;;;;;5022174;28;20482;-62
2023/04/03 13:37:27;;;;;;;10.18;2.22;;;;;;;;;;5023479;28;20037;-60
2023/04/03 13:40:07;;;;;;;5.68;1.58;;;;;;;;;;5017974;28;20331;-59
2023/04/03 13:42:34;;;;;;;2.88;1.17;;;;;;;;;;5024975;28;20026;-61
2023/04/03 13:45:08;;;;;;;6.70;1.75;;;;;;;;;;5026758;28;20055;-59
2023/04/03 13:47:38;;;;;;;5.28;1.60;;;;;;;;;;5025990;28;20391;-61
2023/04/03 13:50:13;;;;;;;3.90;1.30;;;;;;;;;;5018232;28;20036;-59
2023/04/03 13:52:43;;;;;;;5.57;1.70;;;;;;;;;;5021667;28;20067;-62
2023/04/03 13:55:29;;;;;;;10.75;2.35;;;;;;;;;;5024852;28;20032;-59
2023/04/03 13:58:02;;;;;;;3.90;1.27;;;;;;;;;;5006154;28;20460;-60
2023/04/03 14:00:30;;;;;;;2.95;1.27;;;;;;;;;;5022664;28;20024;-60
2023/04/03 14:02:56;;;;;;;2.90;1.33;;;;;;;;;;5023889;28;20425;-60
2023/04/03 14:05:21;;;;;;;5.50;1.58;;;;;;;;;;5024010;28;20116;-59
2023/04/03 14:07:47;;;;;;;5.10;1.52;;;;;;;;;;5025479;28;20654;-61
2023/04/03 14:10:12;;;;;;;3.88;1.48;;;;;;;;;;5025223;28;20049;-61
2023/04/03 14:12:41;;;;;;;4.85;1.48;;;;;;;;;;5025878;28;20029;-60
2023/04/03 14:15:16;;;;;;;7.60;2.05;;;;;;;;;;5022359;28;20037;-59
2023/04/03 14:17:42;;;;;;;4.70;1.63;;;;;;;;;;5011419;28;20528;-59
2023/04/03 14:20:13;;;;;;;11.45;2.58;;;;;;;;;;5024011;28;20477;-60
2023/04/03 14:22:38;;;;;;;12.05;2.78;;;;;;;;;;5021273;28;20029;-58
2023/04/03 14:25:04;;;;;;;10.00;2.75;;;;;;;;;;5023635;28;20819;-58
2023/04/03 14:27:34;;;;;;;5.25;1.98;;;;;;;;;;5022832;28;20029;-60
2023/04/03 14:30:00;;;;;;;3.92;1.60;;;;;;;;;;5022318;28;20116;-54
2023/04/03 14:32:25;;;;;;;361.23;231.05;;;;;;;;;;5017525;28;20121;-55
2023/04/03 14:34:52;;;;;;;620.97;269.88;;;;;;;;;;5023492;28;20147;-56
2023/04/03 14:37:20;;;;;;;740.70;305.42;;;;;;;;;;5025774;28;20084;-56
2023/04/03 14:39:45;;;;;;;3.25;1.42;;;;;;;;;;5025520;28;20075;-54
2023/04/03 14:42:16;;;;;;;3.53;1.75;;;;;;;;;;5025402;28;20025;-56